Time;durP1;ratioP1;P1;durP2;ratioP2;P2;SDS_P1;SDS_P2;PMS_P1;PMS_P2;Temp;Humidity;BMP_temperature;BMP_pressure;BME280_temperature;BME280_humidity;BME280_pressure;Samples;Min_cycle;Max_cycle;Signal;HPM_P1;HPM_P2
2020/12/05 00:00:48;;;;;;;11.30;6.07;;;1.60;99.90;;;;;;4393845;32;20167;-66
2020/12/05 00:03:15;;;;;;;9.87;5.83;;;1.60;99.90;;;;;;4390821;32;20219;-66
2020/12/05 00:05:41;;;;;;;10.07;6.27;;;1.50;99.90;;;;;;4389386;32;20218;-66
2020/12/05 00:08:12;;;;;;;9.60;5.97;;;1.50;99.90;;;;;;4391926;32;20229;-66
2020/12/05 00:10:44;;;;;;;10.70;5.83;;;1.50;99.90;;;;;;4403991;32;20666;-65
2020/12/05 00:13:12;;;;;;;9.77;5.70;;;1.60;99.90;;;;;;4396120;32;20215;-65
2020/12/05 00:15:38;;;;;;;9.33;5.97;;;1.60;99.90;;;;;;4389702;32;20243;-66
2020/12/05 00:18:04;;;;;;;8.50;6.00;;;1.60;99.90;;;;;;4396522;32;20190;-65
2020/12/05 00:20:31;;;;;;;11.80;5.67;;;1.50;99.90;;;;;;4392825;32;20223;-66
2020/12/05 00:22:59;;;;;;;10.30;6.57;;;1.50;99.90;;;;;;4389700;32;20202;-65
2020/12/05 00:25:26;;;;;;;9.10;6.07;;;1.50;99.90;;;;;;4399877;32;20193;-65
2020/12/05 00:27:53;;;;;;;9.43;5.30;;;1.60;99.90;;;;;;4402403;32;20223;-66
2020/12/05 00:30:19;;;;;;;9.10;6.03;;;1.60;99.90;;;;;;4397403;32;20174;-65
2020/12/05 00:32:45;;;;;;;13.17;6.57;;;1.60;99.90;;;;;;4395968;32;20638;-66
2020/12/05 00:35:15;;;;;;;12.13;5.87;;;1.60;99.90;;;;;;4396862;32;20575;-64
2020/12/05 00:37:43;;;;;;;11.33;5.50;;;1.70;99.90;;;;;;4392570;32;20636;-66
2020/12/05 00:40:16;;;;;;;11.23;5.73;;;1.70;99.90;;;;;;4395604;32;20151;-65
2020/12/05 00:42:44;;;;;;;9.43;5.73;;;1.70;99.90;;;;;;4406467;32;20183;-67
2020/12/05 00:45:14;;;;;;;10.20;5.53;;;1.70;99.90;;;;;;4393243;32;20209;-64
2020/12/05 00:47:40;;;;;;;9.40;5.63;;;1.60;99.90;;;;;;4400332;32;20178;-65
2020/12/05 00:50:10;;;;;;;11.10;5.73;;;1.60;99.90;;;;;;4404582;32;20601;-64
2020/12/05 00:52:39;;;;;;;7.63;5.43;;;1.70;99.90;;;;;;4405903;32;20580;-65
2020/12/05 00:55:08;;;;;;;9.67;5.73;;;1.70;99.90;;;;;;4395133;32;20171;-66
2020/12/05 00:57:40;;;;;;;5.80;4.87;;;1.70;99.90;;;;;;4405990;32;20215;-66
2020/12/05 01:00:07;;;;;;;7.33;5.60;;;1.70;99.90;;;;;;4393271;32;20231;-66
2020/12/05 01:02:35;;;;;;;10.13;5.87;;;1.70;99.90;;;;;;4395908;32;20223;-65
2020/12/05 01:05:02;;;;;;;18.13;6.10;;;1.70;99.90;;;;;;4398689;32;20178;-66
2020/12/05 01:07:28;;;;;;;8.20;6.10;;;1.70;99.90;;;;;;4405695;32;20222;-66
2020/12/05 01:09:55;;;;;;;7.83;5.70;;;1.70;99.90;;;;;;4403288;32;20215;-66
2020/12/05 01:12:24;;;;;;;8.93;6.60;;;1.70;99.90;;;;;;4405316;32;20167;-66
2020/12/05 01:14:50;;;;;;;6.50;5.57;;;1.70;99.90;;;;;;4400293;32;20156;-66
2020/12/05 01:17:16;;;;;;;8.20;5.67;;;1.70;99.90;;;;;;4400007;32;20180;-65
2020/12/05 01:19:43;;;;;;;8.73;5.83;;;1.80;99.90;;;;;;4393210;32;20456;-67
2020/12/05 01:22:11;;;;;;;9.67;6.00;;;1.80;99.90;;;;;;4397101;32;20230;-66
2020/12/05 01:24:37;;;;;;;12.57;5.70;;;1.80;99.90;;;;;;4400485;32;20219;-66
2020/12/05 01:27:03;;;;;;;13.63;5.87;;;1.70;99.90;;;;;;4398761;32;20541;-67
2020/12/05 01:29:30;;;;;;;10.20;5.93;;;1.80;99.90;;;;;;4400354;32;20279;-67
2020/12/05 01:31:56;;;;;;;9.40;6.13;;;1.80;99.90;;;;;;4397939;32;20190;-66
2020/12/05 01:34:22;;;;;;;9.17;5.47;;;1.80;99.90;;;;;;4399479;32;20170;-66
2020/12/05 01:36:49;;;;;;;8.93;5.73;;;1.90;99.90;;;;;;4395030;32;20207;-66
2020/12/05 01:39:21;;;;;;;11.80;6.60;;;1.90;99.90;;;;;;4398216;32;20218;-66
2020/12/05 01:41:47;;;;;;;8.67;5.53;;;1.90;99.90;;;;;;4405520;32;20172;-66
2020/12/05 01:44:14;;;;;;;8.47;5.43;;;1.80;99.90;;;;;;4403919;32;20227;-65
2020/12/05 01:46:42;;;;;;;7.90;6.30;;;1.80;99.90;;;;;;4403134;32;20271;-67
2020/12/05 01:49:11;;;;;;;9.47;6.30;;;1.90;99.90;;;;;;4400193;32;20201;-64
2020/12/05 01:51:38;;;;;;;7.93;6.00;;;1.90;99.90;;;;;;4393569;32;20211;-65
2020/12/05 01:54:07;;;;;;;7.17;5.30;;;1.90;99.90;;;;;;4395304;32;20171;-65
2020/12/05 01:56:34;;;;;;;11.07;6.10;;;1.80;99.90;;;;;;4391365;32;20160;-65
2020/12/05 01:59:00;;;;;;;7.70;5.20;;;1.80;99.90;;;;;;4404691;32;20215;-65
2020/12/05 02:01:28;;;;;;;8.67;6.30;;;1.70;99.90;;;;;;4404092;32;20220;-65
2020/12/05 02:03:57;;;;;;;7.73;5.63;;;1.80;99.90;;;;;;4392556;32;20481;-65
2020/12/05 02:06:32;;;;;;;9.47;5.83;;;1.80;99.90;;;;;;4393354;32;20199;-65
2020/12/05 02:09:05;;;;;;;9.60;5.77;;;1.80;99.90;;;;;;4398662;32;20175;-64
2020/12/05 02:11:37;;;;;;;11.00;6.17;;;1.70;99.90;;;;;;4394912;32;20235;-65
2020/12/05 02:14:07;;;;;;;7.67;5.93;;;1.60;99.90;;;;;;4391447;32;20164;-65
2020/12/05 02:16:35;;;;;;;9.37;6.87;;;1.60;99.90;;;;;;4399963;32;20191;-65
2020/12/05 02:19:03;;;;;;;7.47;6.03;;;1.60;99.90;;;;;;4393547;32;20152;-65
2020/12/05 02:21:31;;;;;;;8.87;6.20;;;1.50;99.90;;;;;;4401068;32;20262;-65
2020/12/05 02:24:01;;;;;;;10.30;6.20;;;1.40;99.90;;;;;;4395172;32;20239;-66
2020/12/05 02:26:28;;;;;;;12.17;7.03;;;1.40;99.90;;;;;;4392162;32;20226;-66
2020/12/05 02:28:54;;;;;;;9.17;6.17;;;1.40;99.90;;;;;;4394643;32;20174;-66
2020/12/05 02:31:24;;;;;;;10.70;6.70;;;1.40;99.90;;;;;;4399822;32;20144;-64
2020/12/05 02:33:51;;;;;;;9.77;6.40;;;1.40;99.90;;;;;;4390594;32;20167;-64
2020/12/05 02:36:28;;;;;;;10.87;6.33;;;1.40;99.90;;;;;;4399265;32;20223;-67
2020/12/05 02:39:01;;;;;;;10.83;6.47;;;1.30;99.90;;;;;;4391166;32;20170;-66
2020/12/05 02:41:30;;;;;;;8.67;6.20;;;1.30;99.90;;;;;;4390569;32;20143;-64
2020/12/05 02:43:57;;;;;;;11.37;6.73;;;1.30;99.90;;;;;;4398643;32;20238;-66
2020/12/05 02:46:24;;;;;;;10.07;6.43;;;1.20;99.90;;;;;;4390911;32;20155;-66
2020/12/05 02:48:50;;;;;;;10.07;7.30;;;1.20;99.90;;;;;;4390756;32;20155;-66
2020/12/05 02:51:19;;;;;;;10.80;6.97;;;1.20;99.90;;;;;;4390720;32;20223;-66
2020/12/05 02:53:46;;;;;;;11.43;6.70;;;1.20;99.90;;;;;;4403924;32;20231;-65
2020/12/05 02:56:18;;;;;;;9.77;6.90;;;1.10;99.90;;;;;;4396291;32;20148;-66
2020/12/05 02:58:47;;;;;;;10.63;6.57;;;1.00;99.90;;;;;;4406349;32;20155;-65
2020/12/05 03:01:13;;;;;;;8.90;6.87;;;1.00;99.90;;;;;;4400194;32;20223;-66
2020/12/05 03:03:40;;;;;;;14.03;6.37;;;1.10;99.90;;;;;;4404832;32;20583;-66
2020/12/05 03:06:07;;;;;;;9.87;6.73;;;1.10;99.90;;;;;;4402757;32;20182;-65
2020/12/05 03:08:33;;;;;;;13.93;7.93;;;1.10;99.90;;;;;;4399408;32;20223;-65
2020/12/05 03:10:59;;;;;;;10.70;7.47;;;1.00;99.90;;;;;;4390311;32;20537;-66
2020/12/05 03:13:27;;;;;;;12.20;8.10;;;1.00;99.90;;;;;;4388993;32;20152;-65
2020/12/05 03:15:53;;;;;;;15.03;6.93;;;0.90;99.90;;;;;;4393194;32;20181;-65
2020/12/05 03:18:19;;;;;;;10.57;7.37;;;1.00;99.90;;;;;;4398829;32;20290;-66
2020/12/05 03:20:46;;;;;;;11.63;7.50;;;0.90;99.90;;;;;;4398082;32;20209;-66
2020/12/05 03:23:12;;;;;;;10.40;7.33;;;0.90;99.90;;;;;;4403033;32;20227;-66
2020/12/05 03:25:38;;;;;;;14.93;7.43;;;0.90;99.90;;;;;;4403377;32;20172;-65
2020/12/05 03:28:08;;;;;;;11.53;8.27;;;0.90;99.90;;;;;;4404318;32;20151;-65
2020/12/05 03:30:35;;;;;;;10.77;8.00;;;1.00;99.90;;;;;;4390197;32;20178;-66
2020/12/05 03:33:04;;;;;;;11.50;7.60;;;0.80;99.90;;;;;;4398784;32;20602;-65
2020/12/05 03:35:30;;;;;;;11.73;7.80;;;0.80;99.90;;;;;;4400673;32;20283;-66
2020/12/05 03:37:57;;;;;;;12.23;8.13;;;0.70;99.90;;;;;;4389357;32;20182;-65
2020/12/05 03:40:29;;;;;;;14.07;7.83;;;0.70;99.90;;;;;;4389870;32;20213;-65
2020/12/05 03:43:00;;;;;;;11.20;7.53;;;0.70;99.90;;;;;;4390025;32;20164;-64
2020/12/05 03:45:26;;;;;;;14.43;8.17;;;0.70;99.90;;;;;;4399094;32;20140;-64
2020/12/05 03:47:56;;;;;;;13.60;8.07;;;0.70;99.90;;;;;;4402830;32;20159;-66
2020/12/05 03:50:24;;;;;;;14.67;7.83;;;0.70;99.90;;;;;;4393479;32;20151;-64
2020/12/05 03:52:50;;;;;;;11.40;7.73;;;0.70;99.90;;;;;;4401654;32;20406;-65
2020/12/05 03:55:16;;;;;;;11.27;8.10;;;0.70;99.90;;;;;;4403820;32;20568;-65
2020/12/05 03:57:43;;;;;;;15.17;7.90;;;0.70;99.90;;;;;;4392034;32;20187;-65
2020/12/05 04:00:09;;;;;;;12.07;7.37;;;0.70;99.90;;;;;;4397768;32;20578;-66
2020/12/05 04:02:35;;;;;;;9.80;7.47;;;0.70;99.90;;;;;;4402997;32;20159;-66
2020/12/05 04:05:03;;;;;;;13.40;8.20;;;0.70;99.90;;;;;;4396160;32;20238;-65
2020/12/05 04:07:43;;;;;;;12.13;7.60;;;0.60;99.90;;;;;;4402000;32;20155;-66
2020/12/05 04:10:09;;;;;;;14.50;8.30;;;0.50;99.90;;;;;;4389102;32;20258;-65
2020/12/05 04:12:41;;;;;;;11.87;8.30;;;0.50;99.90;;;;;;4391568;32;20265;-65
2020/12/05 04:15:09;;;;;;;15.40;8.87;;;0.50;99.90;;;;;;4403348;32;20163;-66
2020/12/05 04:17:37;;;;;;;13.00;7.80;;;0.50;99.90;;;;;;4401808;32;20181;-65
2020/12/05 04:20:06;;;;;;;11.50;7.80;;;0.50;99.90;;;;;;4389865;32;20179;-65
2020/12/05 04:22:32;;;;;;;11.20;8.03;;;0.60;99.90;;;;;;4394751;32;20167;-65
2020/12/05 04:24:58;;;;;;;10.73;7.83;;;0.50;99.90;;;;;;4389992;32;20231;-65
2020/12/05 04:27:24;;;;;;;16.20;7.00;;;0.40;99.90;;;;;;4394378;32;20163;-65
2020/12/05 04:29:51;;;;;;;13.73;8.37;;;0.40;99.90;;;;;;4403017;32;20179;-65
2020/12/05 04:32:17;;;;;;;10.50;7.60;;;0.40;99.90;;;;;;4400019;32;20152;-65
2020/12/05 04:34:44;;;;;;;11.20;7.67;;;0.30;99.90;;;;;;4398527;32;20167;-65
2020/12/05 04:37:11;;;;;;;10.40;7.30;;;0.40;99.90;;;;;;4399760;32;20549;-64
2020/12/05 04:39:37;;;;;;;11.13;7.80;;;0.40;99.90;;;;;;4389938;32;20240;-65
2020/12/05 04:42:03;;;;;;;15.97;7.73;;;0.30;99.90;;;;;;4394950;32;20235;-64
2020/12/05 04:44:30;;;;;;;12.00;7.57;;;0.30;99.90;;;;;;4399850;32;20163;-64
2020/12/05 04:46:58;;;;;;;10.90;7.50;;;0.30;99.90;;;;;;4401541;32;20182;-64
2020/12/05 04:49:28;;;;;;;12.50;8.50;;;0.40;99.90;;;;;;4404750;32;20464;-64
2020/12/05 04:52:05;;;;;;;11.43;7.57;;;0.30;99.90;;;;;;4389057;32;20584;-66
2020/12/05 04:54:32;;;;;;;16.10;8.33;;;0.30;99.90;;;;;;4389160;32;20159;-64
2020/12/05 04:57:03;;;;;;;14.53;8.70;;;0.30;99.90;;;;;;4389615;32;20176;-64
2020/12/05 04:59:31;;;;;;;15.63;9.40;;;0.30;99.90;;;;;;4403385;32;20493;-65
2020/12/05 05:02:00;;;;;;;15.40;9.13;;;0.30;99.90;;;;;;4399067;32;20531;-65
2020/12/05 05:04:27;;;;;;;14.23;8.33;;;0.30;99.90;;;;;;4403576;32;20207;-65
2020/12/05 05:07:03;;;;;;;12.83;8.20;;;0.30;99.90;;;;;;4388864;32;20227;-66
2020/12/05 05:09:29;;;;;;;13.93;8.33;;;0.30;99.90;;;;;;4395030;32;20221;-64
2020/12/05 05:11:57;;;;;;;15.13;9.23;;;0.40;99.90;;;;;;4397337;32;20453;-65
2020/12/05 05:14:32;;;;;;;17.43;8.27;;;0.40;99.90;;;;;;4390126;32;20144;-64
2020/12/05 05:17:03;;;;;;;12.80;7.93;;;0.40;99.90;;;;;;4400094;32;20214;-64
2020/12/05 05:19:34;;;;;;;11.97;8.93;;;0.40;99.90;;;;;;4391738;32;20230;-63
2020/12/05 05:22:01;;;;;;;11.73;8.67;;;0.30;99.90;;;;;;4399243;32;20227;-64
2020/12/05 05:24:27;;;;;;;12.70;8.10;;;0.40;99.90;;;;;;4391444;32;20182;-64
2020/12/05 05:27:02;;;;;;;14.57;8.50;;;0.40;99.90;;;;;;4391682;32;20155;-64
2020/12/05 05:29:32;;;;;;;18.53;9.43;;;0.40;99.90;;;;;;4391328;32;20198;-64
2020/12/05 05:32:04;;;;;;;12.27;8.13;;;0.40;99.90;;;;;;4397942;32;20185;-64
2020/12/05 05:34:31;;;;;;;11.67;8.30;;;0.40;99.90;;;;;;4404740;32;20602;-64
2020/12/05 05:36:58;;;;;;;10.43;7.80;;;0.30;99.90;;;;;;4393483;32;20600;-64
2020/12/05 05:39:24;;;;;;;12.70;8.40;;;0.40;99.90;;;;;;4391984;32;20176;-64
2020/12/05 05:41:52;;;;;;;15.77;9.23;;;0.30;99.90;;;;;;4400028;32;20147;-64
2020/12/05 05:44:21;;;;;;;13.83;8.63;;;0.30;99.90;;;;;;4404545;32;20194;-63
2020/12/05 05:46:49;;;;;;;13.47;8.53;;;0.40;99.90;;;;;;4401285;32;20598;-63
2020/12/05 05:49:25;;;;;;;13.17;8.47;;;0.30;99.90;;;;;;4393767;32;20491;-64
2020/12/05 05:51:53;;;;;;;12.47;8.60;;;0.30;99.90;;;;;;4404680;32;20155;-64
2020/12/05 05:54:22;;;;;;;16.17;8.83;;;0.30;99.90;;;;;;4392587;32;20671;-64
2020/12/05 05:56:57;;;;;;;12.17;9.10;;;0.40;99.90;;;;;;4389922;32;20250;-64
2020/12/05 05:59:26;;;;;;;12.40;8.60;;;0.40;99.90;;;;;;4403332;32;20165;-63
2020/12/05 06:01:54;;;;;;;14.20;9.30;;;0.30;99.90;;;;;;4398984;32;20219;-63
2020/12/05 06:04:25;;;;;;;14.63;8.60;;;0.30;99.90;;;;;;4391570;32;20255;-64
2020/12/05 06:06:52;;;;;;;15.67;9.13;;;0.30;99.90;;;;;;4391202;32;20207;-64
2020/12/05 06:09:24;;;;;;;12.80;9.30;;;0.30;99.90;;;;;;4390419;32;20228;-63
2020/12/05 06:11:53;;;;;;;13.20;8.57;;;0.30;99.90;;;;;;4400511;32;20202;-65
2020/12/05 06:14:24;;;;;;;16.47;10.60;;;0.30;99.90;;;;;;4392750;32;20261;-65
2020/12/05 06:16:52;;;;;;;18.33;10.63;;;0.30;99.90;;;;;;4402711;32;20598;-65
2020/12/05 06:19:22;;;;;;;16.17;10.97;;;0.30;99.90;;;;;;4393934;32;20156;-65
2020/12/05 06:21:51;;;;;;;15.73;10.57;;;0.30;99.90;;;;;;4396287;32;20198;-65
2020/12/05 06:24:28;;;;;;;14.40;10.47;;;0.20;99.90;;;;;;4393650;32;20212;-64
2020/12/05 06:26:56;;;;;;;16.27;10.57;;;0.20;99.90;;;;;;4397605;32;20178;-65
2020/12/05 06:29:25;;;;;;;17.43;11.60;;;0.20;99.90;;;;;;4397349;32;20232;-65
2020/12/05 06:31:52;;;;;;;17.53;11.07;;;0.20;99.90;;;;;;4391577;32;20655;-65
2020/12/05 06:34:36;;;;;;;16.73;11.40;;;0.20;99.90;;;;;;4405886;32;20183;-64
2020/12/05 06:37:04;;;;;;;16.27;11.73;;;0.20;99.90;;;;;;4399371;32;20215;-64
2020/12/05 06:39:30;;;;;;;16.13;11.97;;;0.20;99.90;;;;;;4402697;32;20167;-65
2020/12/05 06:41:57;;;;;;;14.73;10.70;;;0.30;99.90;;;;;;4394089;32;20624;-64
2020/12/05 06:44:35;;;;;;;17.53;11.30;;;0.20;99.90;;;;;;4401649;32;20167;-64
2020/12/05 06:47:05;;;;;;;18.10;11.90;;;0.30;99.90;;;;;;4397027;32;20179;-64
2020/12/05 06:49:53;;;;;;;19.30;12.53;;;0.30;99.90;;;;;;4403607;32;20267;-64
2020/12/05 06:52:47;;;;;;;17.97;12.73;;;0.30;99.90;;;;;;4395963;32;20191;-64
2020/12/05 06:55:29;;;;;;;16.57;12.70;;;0.30;99.90;;;;;;4390663;32;20164;-63
2020/12/05 06:58:04;;;;;;;20.33;13.50;;;0.30;99.90;;;;;;4389591;32;20205;-64
2020/12/05 07:00:33;;;;;;;18.00;13.13;;;0.30;99.90;;;;;;4379052;32;20191;-64
2020/12/05 07:03:01;;;;;;;21.30;13.03;;;0.30;99.90;;;;;;4394482;32;20179;-64
2020/12/05 07:05:36;;;;;;;22.63;13.47;;;0.30;99.90;;;;;;4389914;32;20164;-64
2020/12/05 07:08:23;;;;;;;19.50;13.30;;;0.40;99.90;;;;;;4393110;32;20484;-64
2020/12/05 07:10:56;;;;;;;18.50;13.43;;;0.30;99.90;;;;;;4394987;32;20195;-64
2020/12/05 07:13:26;;;;;;;20.33;13.50;;;0.40;99.90;;;;;;4395582;32;20202;-64
2020/12/05 07:16:09;;;;;;;20.73;13.83;;;0.40;99.90;;;;;;4398029;32;20207;-64
2020/12/05 07:18:38;;;;;;;21.17;14.10;;;0.40;99.90;;;;;;4394256;32;20650;-65
2020/12/05 07:21:05;;;;;;;17.97;13.40;;;0.50;99.90;;;;;;4390055;32;20262;-64
2020/12/05 07:23:36;;;;;;;22.53;14.37;;;0.50;99.90;;;;;;4395121;32;20179;-64
2020/12/05 07:26:04;;;;;;;21.70;13.60;;;0.50;99.90;;;;;;4396955;32;20168;-65
2020/12/05 07:28:33;;;;;;;21.37;14.77;;;0.60;99.90;;;;;;4390614;32;20223;-65
2020/12/05 07:31:06;;;;;;;21.80;14.47;;;0.60;99.90;;;;;;4393455;32;20172;-64
2020/12/05 07:33:41;;;;;;;20.63;14.43;;;0.50;99.90;;;;;;4395141;32;20600;-64
2020/12/05 07:36:08;;;;;;;21.70;14.53;;;0.50;99.90;;;;;;4393466;32;20215;-65
2020/12/05 07:38:36;;;;;;;20.40;14.83;;;0.60;99.90;;;;;;4391634;32;20211;-65
2020/12/05 07:41:09;;;;;;;23.40;14.27;;;0.60;99.90;;;;;;4391261;32;20270;-65
2020/12/05 07:43:37;;;;;;;20.77;15.03;;;0.70;99.90;;;;;;4391580;32;20178;-66
2020/12/05 07:46:11;;;;;;;23.27;15.43;;;0.80;99.90;;;;;;4398983;32;20263;-65
2020/12/05 07:48:40;;;;;;;23.47;15.13;;;0.80;99.90;;;;;;4397914;32;20182;-65
2020/12/05 07:51:12;;;;;;;21.30;14.43;;;0.90;99.90;;;;;;4394222;32;20279;-65
2020/12/05 07:53:38;;;;;;;23.70;15.13;;;0.90;99.90;;;;;;4393581;32;20191;-65
2020/12/05 07:56:19;;;;;;;27.53;16.43;;;1.00;99.90;;;;;;4392631;32;20221;-66
2020/12/05 07:58:54;;;;;;;23.30;15.53;;;1.00;99.90;;;;;;4394876;32;20216;-67
2020/12/05 08:01:57;;;;;;;23.53;15.10;;;1.10;99.90;;;;;;4393407;32;20553;-67
2020/12/05 08:04:40;;;;;;;23.27;15.07;;;1.20;99.90;;;;;;4391600;32;20266;-66
2020/12/05 08:07:17;;;;;;;19.87;13.90;;;1.20;99.90;;;;;;4395436;32;20211;-66
2020/12/05 08:09:44;;;;;;;18.47;13.50;;;1.30;99.90;;;;;;4398397;32;20211;-66
2020/12/05 08:12:13;;;;;;;20.07;14.33;;;1.40;99.90;;;;;;4395174;32;20190;-65
2020/12/05 08:14:45;;;;;;;23.20;13.33;;;1.40;99.90;;;;;;4395974;32;20250;-65
2020/12/05 08:17:14;;;;;;;20.40;13.83;;;1.50;99.90;;;;;;4394307;32;20164;-65
2020/12/05 08:19:44;;;;;;;21.53;13.57;;;1.50;99.90;;;;;;4392040;32;20669;-65
2020/12/05 08:22:15;;;;;;;18.20;14.10;;;1.50;99.90;;;;;;4395685;32;20491;-64
2020/12/05 08:24:52;;;;;;;20.87;13.40;;;1.60;99.90;;;;;;4396355;32;20195;-64
2020/12/05 08:27:19;;;;;;;22.80;13.80;;;1.70;99.90;;;;;;4396917;32;20163;-64
2020/12/05 08:29:47;;;;;;;20.17;13.47;;;1.70;99.90;;;;;;4390944;32;20176;-64
2020/12/05 08:32:17;;;;;;;16.70;12.93;;;1.80;99.90;;;;;;4394866;32;20234;-66
2020/12/05 08:34:45;;;;;;;17.50;12.63;;;2.00;99.90;;;;;;4395811;32;20152;-65
2020/12/05 08:37:19;;;;;;;16.43;13.00;;;2.00;99.90;;;;;;4396924;32;20175;-65
2020/12/05 08:39:50;;;;;;;15.23;11.67;;;2.00;99.90;;;;;;4393719;32;20160;-65
2020/12/05 08:42:20;;;;;;;15.40;12.17;;;2.00;99.90;;;;;;4387754;32;20563;-66
2020/12/05 08:44:50;;;;;;;17.70;11.90;;;2.00;99.90;;;;;;4390303;32;20286;-65
2020/12/05 08:47:24;;;;;;;17.87;12.83;;;2.00;99.90;;;;;;4394817;32;20644;-66
2020/12/05 08:49:56;;;;;;;19.50;12.33;;;2.10;99.90;;;;;;4396499;32;20154;-67
2020/12/05 08:52:31;;;;;;;20.67;12.13;;;2.10;99.90;;;;;;4397539;32;20186;-67
2020/12/05 08:55:03;;;;;;;17.67;12.27;;;2.10;99.90;;;;;;4397413;32;20158;-65
2020/12/05 08:57:30;;;;;;;19.73;12.97;;;2.20;99.90;;;;;;4394930;32;20195;-65
2020/12/05 09:00:06;;;;;;;20.67;14.17;;;2.20;99.90;;;;;;4398153;32;20163;-65
2020/12/05 09:02:37;;;;;;;18.63;13.17;;;2.20;99.90;;;;;;4396848;32;20218;-65
2020/12/05 09:05:07;;;;;;;16.93;11.87;;;2.20;99.90;;;;;;4399862;32;20190;-66
2020/12/05 09:07:43;;;;;;;20.00;12.07;;;2.20;99.90;;;;;;4398865;32;20179;-66
2020/12/05 09:10:23;;;;;;;15.50;11.73;;;2.30;99.90;;;;;;4397298;32;20198;-66
2020/12/05 09:13:03;;;;;;;14.67;11.10;;;2.30;99.90;;;;;;4396902;32;20479;-66
2020/12/05 09:15:30;;;;;;;18.10;12.57;;;2.40;99.90;;;;;;4397520;32;20219;-67
2020/12/05 09:17:56;;;;;;;17.30;13.20;;;2.40;99.90;;;;;;4397563;32;20230;-69
2020/12/05 09:20:24;;;;;;;15.73;11.83;;;2.50;99.90;;;;;;4395689;32;20223;-66
2020/12/05 09:22:57;;;;;;;17.53;12.93;;;2.50;99.90;;;;;;4397563;32;20266;-65
2020/12/05 09:25:30;;;;;;;16.50;11.30;;;2.60;99.90;;;;;;4394272;32;20569;-66
2020/12/05 09:27:57;;;;;;;16.10;11.50;;;2.60;99.90;;;;;;4396643;32;20176;-66
2020/12/05 09:30:25;;;;;;;19.80;13.17;;;2.60;99.90;;;;;;4399090;32;20315;-67
2020/12/05 09:32:53;;;;;;;17.57;12.57;;;2.60;99.90;;;;;;4398314;32;20237;-66
2020/12/05 09:35:21;;;;;;;19.63;12.47;;;2.70;99.90;;;;;;4397221;32;20175;-67
2020/12/05 09:37:50;;;;;;;17.63;12.80;;;2.70;99.90;;;;;;4395105;32;20164;-66
2020/12/05 09:40:19;;;;;;;19.53;12.93;;;2.80;99.90;;;;;;4397979;32;20149;-66
2020/12/05 09:42:46;;;;;;;25.33;13.83;;;2.80;99.90;;;;;;4395899;32;20216;-67
2020/12/05 09:45:15;;;;;;;17.50;12.63;;;2.80;99.90;;;;;;4396374;32;20228;-67
2020/12/05 09:47:45;;;;;;;19.40;12.10;;;2.80;99.90;;;;;;4395639;32;20220;-67
2020/12/05 09:50:14;;;;;;;16.17;12.50;;;2.80;99.90;;;;;;4391155;32;20211;-68
2020/12/05 09:52:44;;;;;;;19.07;12.37;;;2.80;99.90;;;;;;4393646;32;20187;-67
2020/12/05 09:55:36;;;;;;;20.40;12.17;;;2.80;99.90;;;;;;4394126;32;20216;-67
2020/12/05 09:58:02;;;;;;;17.37;11.93;;;2.80;99.90;;;;;;4403363;32;20163;-68
2020/12/05 10:00:33;;;;;;;16.30;12.10;;;2.90;99.90;;;;;;4393554;32;20178;-68
2020/12/05 10:03:01;;;;;;;15.53;11.87;;;2.90;99.90;;;;;;4397110;32;20211;-66
2020/12/05 10:05:27;;;;;;;16.53;11.90;;;3.20;99.90;;;;;;4396282;32;20187;-67
2020/12/05 10:07:53;;;;;;;15.50;11.27;;;3.10;99.90;;;;;;4397644;32;20179;-67
2020/12/05 10:10:21;;;;;;;19.50;12.10;;;3.10;99.90;;;;;;4399072;32;20217;-67
2020/12/05 10:12:47;;;;;;;16.03;11.33;;;3.20;99.90;;;;;;4397624;32;20220;-66
2020/12/05 10:15:25;;;;;;;14.87;11.17;;;3.20;99.90;;;;;;4398193;32;20197;-68
2020/12/05 10:17:51;;;;;;;15.17;10.83;;;3.30;99.90;;;;;;4397175;32;20219;-67
2020/12/05 10:20:20;;;;;;;17.67;12.03;;;3.30;99.90;;;;;;4397833;32;20202;-67
2020/12/05 10:22:46;;;;;;;16.07;11.90;;;3.30;99.90;;;;;;4404603;32;20217;-67
2020/12/05 10:25:17;;;;;;;16.37;11.17;;;3.30;99.90;;;;;;4406633;32;20627;-67
2020/12/05 10:27:46;;;;;;;15.43;11.73;;;3.40;99.90;;;;;;4401475;32;20239;-68
2020/12/05 10:30:12;;;;;;;14.50;11.37;;;3.50;99.90;;;;;;4395887;32;20175;-66
2020/12/05 10:32:38;;;;;;;15.30;11.23;;;3.50;99.90;;;;;;4401046;32;20497;-67
2020/12/05 10:35:06;;;;;;;15.83;11.63;;;3.70;99.90;;;;;;4400197;32;20208;-67
2020/12/05 10:37:35;;;;;;;16.60;11.53;;;3.70;99.90;;;;;;4402644;32;20221;-67
2020/12/05 10:40:02;;;;;;;17.33;12.33;;;3.70;99.90;;;;;;4390505;32;20157;-68
2020/12/05 10:42:28;;;;;;;17.63;13.37;;;3.80;99.90;;;;;;4398764;32;20568;-68
2020/12/05 10:44:57;;;;;;;18.00;11.83;;;3.80;99.90;;;;;;4396727;32;20203;-67
2020/12/05 10:47:24;;;;;;;16.87;11.47;;;3.80;99.90;;;;;;4397740;32;20158;-68
2020/12/05 10:49:53;;;;;;;16.17;12.03;;;3.90;99.90;;;;;;4398234;32;20187;-68
2020/12/05 10:52:19;;;;;;;15.13;11.30;;;3.90;99.90;;;;;;4397374;32;20190;-67
2020/12/05 10:54:46;;;;;;;16.77;10.67;;;3.90;99.90;;;;;;4392334;32;20195;-69
2020/12/05 10:57:25;;;;;;;14.90;10.07;;;4.00;99.90;;;;;;4397626;32;20217;-68
2020/12/05 10:59:58;;;;;;;14.53;10.50;;;3.90;99.90;;;;;;4396331;32;20458;-67
2020/12/05 11:02:25;;;;;;;12.70;9.03;;;4.00;99.90;;;;;;4392519;32;20827;-67
2020/12/05 11:04:52;;;;;;;11.90;8.40;;;4.10;99.90;;;;;;4384024;32;20200;-69
2020/12/05 11:07:21;;;;;;;9.70;7.60;;;4.20;99.90;;;;;;4394110;32;21222;-66
2020/12/05 11:09:47;;;;;;;12.03;7.30;;;4.20;99.90;;;;;;4395582;32;20582;-67
2020/12/05 11:12:14;;;;;;;12.13;8.57;;;4.30;99.90;;;;;;4393794;32;20184;-70
2020/12/05 11:14:41;;;;;;;12.20;8.33;;;4.20;99.90;;;;;;4394364;32;20201;-69
2020/12/05 11:17:09;;;;;;;10.10;8.60;;;4.30;99.90;;;;;;4393955;32;20239;-67
2020/12/05 11:19:38;;;;;;;9.23;7.77;;;4.30;99.90;;;;;;4391791;32;20240;-68
2020/12/05 11:22:09;;;;;;;9.60;7.57;;;4.30;99.90;;;;;;4391658;32;20171;-68
2020/12/05 11:24:35;;;;;;;13.57;8.93;;;4.40;99.90;;;;;;4393743;32;20189;-68
2020/12/05 11:27:03;;;;;;;11.10;7.83;;;4.40;99.90;;;;;;4391219;32;20537;-68
2020/12/05 11:29:29;;;;;;;10.83;7.60;;;4.40;99.90;;;;;;4392851;32;20525;-68
2020/12/05 11:32:00;;;;;;;8.43;6.37;;;4.50;99.90;;;;;;4391327;32;20209;-68
2020/12/05 11:34:27;;;;;;;10.53;7.23;;;4.50;99.90;;;;;;4390942;32;20203;-68
2020/12/05 11:36:56;;;;;;;7.80;6.60;;;4.60;99.90;;;;;;4398053;32;20193;-69
2020/12/05 11:39:24;;;;;;;7.23;4.73;;;4.60;99.90;;;;;;4393248;32;20569;-70
2020/12/05 11:41:53;;;;;;;6.87;5.03;;;4.70;99.90;;;;;;4393794;32;20196;-68
2020/12/05 11:44:19;;;;;;;8.17;5.10;;;4.70;99.90;;;;;;4393153;32;20205;-68
2020/12/05 11:46:49;;;;;;;9.07;4.90;;;4.80;99.90;;;;;;4394351;32;20612;-68
2020/12/05 11:49:19;;;;;;;5.20;4.50;;;4.80;99.90;;;;;;4391728;32;20179;-67
2020/12/05 11:51:47;;;;;;;5.73;4.77;;;4.80;99.90;;;;;;4392639;32;20167;-68
2020/12/05 11:54:14;;;;;;;6.37;4.77;;;4.90;99.90;;;;;;4393966;32;20164;-68
2020/12/05 11:56:40;;;;;;;7.00;5.00;;;4.60;99.90;;;;;;4391220;32;20529;-68
2020/12/05 11:59:09;;;;;;;8.57;4.87;;;4.90;99.90;;;;;;4399357;32;20164;-68
2020/12/05 12:04:24;;;;;;;7.50;5.00;;;5.00;99.90;;;;;;4390659;32;20180;-68
2020/12/05 12:06:53;;;;;;;6.67;4.83;;;4.80;99.90;;;;;;4393243;32;20265;-67
2020/12/05 12:09:21;;;;;;;8.30;4.77;;;4.80;99.90;;;;;;4388615;32;20149;-68
2020/12/05 12:11:47;;;;;;;6.13;4.53;;;4.80;99.90;;;;;;4392914;32;20160;-67
2020/12/05 12:14:28;;;;;;;6.50;3.97;;;4.90;99.90;;;;;;4395643;32;20241;-68
2020/12/05 12:17:02;;;;;;;8.80;4.73;;;4.90;99.90;;;;;;4394677;32;20159;-68
2020/12/05 12:19:33;;;;;;;6.07;4.77;;;4.90;99.90;;;;;;4398768;32;20275;-68
2020/12/05 12:22:01;;;;;;;7.30;4.63;;;4.90;99.90;;;;;;4394284;32;20175;-68
2020/12/05 12:24:28;;;;;;;6.80;4.27;;;4.90;99.90;;;;;;4403340;32;20156;-68
2020/12/05 12:26:54;;;;;;;5.13;4.50;;;4.80;99.90;;;;;;4406119;32;20160;-68
2020/12/05 12:29:20;;;;;;;10.70;7.70;;;4.90;99.90;;;;;;4395401;32;20214;-68
2020/12/05 12:31:54;;;;;;;8.90;5.43;;;4.90;99.90;;;;;;4394881;32;20168;-67
2020/12/05 12:34:23;;;;;;;7.43;5.33;;;5.00;99.90;;;;;;4395716;32;20195;-68
2020/12/05 12:36:54;;;;;;;7.80;5.43;;;4.90;99.90;;;;;;4407064;32;20169;-67
2020/12/05 12:39:30;;;;;;;9.13;4.67;;;4.90;99.90;;;;;;4401545;32;20304;-68
2020/12/05 12:42:00;;;;;;;6.20;4.93;;;5.10;99.90;;;;;;4402558;32;20160;-68
2020/12/05 12:44:26;;;;;;;5.87;4.83;;;5.10;99.90;;;;;;4405142;32;20511;-68
2020/12/05 12:47:06;;;;;;;6.43;5.27;;;5.00;99.90;;;;;;4392903;32;20177;-67
2020/12/05 12:49:36;;;;;;;7.80;4.43;;;5.00;99.90;;;;;;4393768;32;20251;-68
2020/12/05 12:52:30;;;;;;;24.60;22.00;;;5.00;99.90;;;;;;4397127;32;20187;-68
2020/12/05 12:54:57;;;;;;;14.53;12.93;;;5.00;99.90;;;;;;4333773;33;20247;-67
2020/12/05 12:57:27;;;;;;;26.33;23.83;;;5.10;99.90;;;;;;4330754;33;20258;-68
2020/12/05 12:59:54;;;;;;;9.57;5.83;;;5.00;99.90;;;;;;4340497;33;20247;-68